createdAt,value
2017-09-12T00:02:10.282Z,94273.34
2017-09-12T00:04:42.078Z,94289.93
2017-09-12T00:07:10.631Z,94310.01
2017-09-12T00:09:40.474Z,94266.82
2017-09-12T00:12:17.906Z,94265.81
2017-09-12T00:14:47.678Z,94257.61
2017-09-12T00:17:15.305Z,94256.59
2017-09-12T00:19:42.852Z,94262.01
2017-09-12T00:22:10.410Z,94254.34
2017-09-12T00:24:38.011Z,94231.67
2017-09-12T00:27:05.539Z,94243.56
2017-09-12T00:29:33.092Z,94244.36
2017-09-12T00:32:00.671Z,94231.98
2017-09-12T00:34:28.435Z,94245.38
2017-09-12T00:36:56.023Z,94258.89
2017-09-12T00:39:23.683Z,94243.99
2017-09-12T00:41:51.303Z,94239.59
2017-09-12T00:44:18.903Z,94239.59
2017-09-12T00:46:46.524Z,94245.03
2017-09-12T00:49:14.266Z,94260.29
2017-09-12T00:51:42.125Z,94277.26
2017-09-12T00:54:09.795Z,94245.13
2017-09-12T00:56:37.415Z,94275.56
2017-09-12T00:59:06.022Z,94295.97
2017-09-12T01:01:33.672Z,94295.17
2017-09-12T01:04:01.264Z,94283.86
2017-09-12T01:06:28.812Z,94289.42
2017-09-12T01:08:56.430Z,94287.61
2017-09-12T01:11:23.978Z,94300.90
2017-09-12T01:13:52.302Z,94269.22
2017-09-12T01:16:19.909Z,94241.48
2017-09-12T01:18:47.462Z,94248.61
2017-09-12T01:21:15.013Z,94244.25
2017-09-12T01:23:42.614Z,94258.77
2017-09-12T01:26:10.435Z,94252.39
2017-09-12T01:28:38.070Z,94251.72
2017-09-12T01:31:05.694Z,94271.48
2017-09-12T01:33:33.257Z,94283.09
2017-09-12T01:36:01.042Z,94289.64
2017-09-12T01:38:28.622Z,94287.62
2017-09-12T01:40:56.169Z,94294.35
2017-09-12T01:43:23.685Z,94293.09
2017-09-12T01:45:51.295Z,94296.94
2017-09-12T01:48:19.026Z,94306.63
2017-09-12T01:50:46.544Z,94311.25
2017-09-12T01:53:14.198Z,94324.88
2017-09-12T01:55:41.746Z,94322.00
2017-09-12T01:58:09.642Z,94327.53
2017-09-12T02:00:38.159Z,94329.25
2017-09-12T02:03:05.702Z,94314.59
2017-09-12T02:05:33.276Z,94323.83
2017-09-12T02:08:00.871Z,94321.00
2017-09-12T02:10:28.401Z,94313.27
2017-09-12T02:12:56.239Z,94323.23
2017-09-12T02:15:23.786Z,94328.97
2017-09-12T02:17:51.295Z,94322.97
2017-09-12T02:20:18.842Z,94316.08
2017-09-12T02:22:46.802Z,94324.45
2017-09-12T02:25:14.335Z,94313.34
2017-09-12T02:27:42.620Z,94318.02
2017-09-12T02:30:10.298Z,94311.33
2017-09-12T02:32:38.095Z,94324.00
2017-09-12T02:35:05.651Z,94319.05
2017-09-12T02:37:33.214Z,94307.23
2017-09-12T02:40:00.756Z,94314.16
2017-09-12T02:42:28.596Z,94324.94
2017-09-12T02:44:56.170Z,94317.91
2017-09-12T02:47:23.702Z,94329.06
2017-09-12T02:49:51.636Z,94343.09
2017-09-12T02:52:19.346Z,94337.35
2017-09-12T02:54:47.195Z,94351.53
2017-09-12T02:57:14.712Z,94349.41
2017-09-12T02:59:42.314Z,94344.06
2017-09-12T03:02:09.898Z,94340.16
2017-09-12T03:04:37.406Z,94344.11
2017-09-12T03:07:04.922Z,94344.86
2017-09-12T03:09:32.538Z,94343.75
2017-09-12T03:12:00.072Z,94336.05
2017-09-12T03:14:27.645Z,94333.22
2017-09-12T03:16:55.210Z,94340.34
2017-09-12T03:19:23.030Z,94336.38
2017-09-12T03:21:50.553Z,94341.66
2017-09-12T03:24:18.138Z,94331.67
2017-09-12T03:26:45.655Z,94337.28
2017-09-12T03:29:13.186Z,94344.10
2017-09-12T03:31:40.778Z,94338.27
2017-09-12T03:34:08.333Z,94334.97
2017-09-12T03:36:36.008Z,94326.53
2017-09-12T03:39:03.735Z,94323.31
2017-09-12T03:41:31.783Z,94326.19
2017-09-12T03:43:59.409Z,94335.88
2017-09-12T03:46:26.980Z,94326.76
2017-09-12T03:48:54.837Z,94307.03
2017-09-12T03:51:22.461Z,94316.92
2017-09-12T03:53:50.097Z,94307.54
2017-09-12T03:56:17.769Z,94310.53
2017-09-12T03:58:45.446Z,94315.95
2017-09-12T04:01:13.497Z,94317.15
2017-09-12T04:03:41.179Z,94326.07
2017-09-12T04:06:11.869Z,94327.50
2017-09-12T04:08:42.205Z,94328.23
2017-09-12T04:11:10.112Z,94343.39
2017-09-12T04:13:38.136Z,94340.47
2017-09-12T04:16:05.975Z,94338.58
2017-09-12T04:18:33.653Z,94347.59
2017-09-12T04:21:04.580Z,94350.74
2017-09-12T04:23:34.055Z,94350.99
2017-09-12T04:26:01.859Z,94354.75
2017-09-12T04:28:29.910Z,94353.03
2017-09-12T04:30:57.690Z,94354.95
2017-09-12T04:33:25.331Z,94355.92
2017-09-12T04:35:52.934Z,94358.05
2017-09-12T04:38:20.540Z,94361.66
2017-09-12T04:40:48.167Z,94353.57
2017-09-12T04:43:15.781Z,94354.28
2017-09-12T04:45:43.438Z,94349.79
2017-09-12T04:48:11.050Z,94355.73
2017-09-12T04:50:38.686Z,94357.61
2017-09-12T04:53:06.277Z,94348.72
2017-09-12T04:55:33.802Z,94348.51
2017-09-12T04:58:01.303Z,94351.59
2017-09-12T05:00:28.866Z,94353.70
2017-09-12T05:02:56.768Z,94354.03
2017-09-12T05:05:24.314Z,94347.05
2017-09-12T05:07:51.854Z,94368.58
2017-09-12T05:10:19.464Z,94376.76
2017-09-12T05:12:47.340Z,94358.70
2017-09-12T05:15:15.039Z,94367.80
2017-09-12T05:17:42.576Z,94375.66
2017-09-12T05:20:10.148Z,94382.28
2017-09-12T05:22:37.738Z,94380.45
2017-09-12T05:25:05.250Z,94374.20
2017-09-12T05:27:32.805Z,94371.92
2017-09-12T05:30:00.411Z,94381.84
2017-09-12T05:32:27.963Z,94380.47
2017-09-12T05:34:55.546Z,94374.41
2017-09-12T05:37:23.153Z,94376.80
2017-09-12T05:39:50.705Z,94381.55
2017-09-12T05:42:18.257Z,94387.00
2017-09-12T05:44:46.076Z,94388.38
2017-09-12T05:47:13.781Z,94389.17
2017-09-12T05:49:41.310Z,94386.84
2017-09-12T05:52:09.070Z,94391.77
2017-09-12T05:54:36.692Z,94398.80
2017-09-12T05:57:04.217Z,94401.82
2017-09-12T05:59:31.977Z,94391.03
2017-09-12T06:01:59.511Z,94406.89
2017-09-12T06:04:27.045Z,94401.81
2017-09-12T06:06:54.575Z,94409.28
2017-09-12T06:09:22.222Z,94422.24
2017-09-12T06:11:49.761Z,94421.14
2017-09-12T06:14:17.322Z,94433.80
2017-09-12T06:16:44.996Z,94434.16
2017-09-12T06:19:12.530Z,94436.49
2017-09-12T06:21:40.042Z,94435.66
2017-09-12T06:24:07.808Z,94430.03
2017-09-12T06:26:35.597Z,94435.22
2017-09-12T06:29:03.189Z,94441.23
2017-09-12T06:31:31.338Z,94438.63
2017-09-12T06:33:58.840Z,94436.78
2017-09-12T06:36:26.338Z,94439.44
2017-09-12T06:38:53.912Z,94455.38
2017-09-12T06:41:21.467Z,94452.38
2017-09-12T06:43:49.216Z,94457.92
2017-09-12T06:46:16.778Z,94458.25
2017-09-12T06:48:44.300Z,94455.73
2017-09-12T06:51:12.202Z,94467.77
2017-09-12T06:53:39.771Z,94460.11
2017-09-12T06:56:07.364Z,94465.02
2017-09-12T06:58:34.888Z,94473.61
2017-09-12T07:01:02.498Z,94477.59
2017-09-12T07:03:30.024Z,94480.13
2017-09-12T07:05:57.543Z,94479.50
2017-09-12T07:08:25.143Z,94491.39
2017-09-12T07:10:52.678Z,94503.02
2017-09-12T07:13:20.256Z,94503.95
2017-09-12T07:15:47.797Z,94498.46
2017-09-12T07:18:15.545Z,94509.66
2017-09-12T07:20:43.053Z,94514.59
2017-09-12T07:23:10.602Z,94513.64
2017-09-12T07:25:38.122Z,94511.66
2017-09-12T07:28:05.628Z,94518.42
2017-09-12T07:30:33.265Z,94522.46
2017-09-12T07:33:00.791Z,94529.60
2017-09-12T07:35:28.550Z,94523.60
2017-09-12T07:37:56.108Z,94517.97
2017-09-12T07:40:23.682Z,94518.05
2017-09-12T07:42:51.216Z,94524.73
2017-09-12T07:45:18.760Z,94511.13
2017-09-12T07:47:46.301Z,94518.56
2017-09-12T07:50:13.803Z,94515.70
2017-09-12T07:52:41.390Z,94521.24
2017-09-12T07:55:08.898Z,94542.21
2017-09-12T07:57:36.448Z,94525.45
2017-09-12T08:00:06.129Z,94518.48
2017-09-12T08:02:33.653Z,94534.77
2017-09-12T08:05:01.426Z,94538.72
2017-09-12T08:07:28.978Z,94539.84
2017-09-12T08:09:56.483Z,94533.86
2017-09-12T08:12:24.006Z,94538.95
2017-09-12T08:14:51.598Z,94540.41
2017-09-12T08:17:19.397Z,94544.03
2017-09-12T08:19:46.918Z,94533.95
2017-09-12T08:22:14.562Z,94537.93
2017-09-12T08:28:12.708Z,94541.08
2017-09-12T08:30:40.279Z,94540.45
2017-09-12T08:33:07.805Z,94544.97
2017-09-12T08:35:35.370Z,94544.11
2017-09-12T08:38:02.957Z,94546.97
2017-09-12T08:40:30.522Z,94551.15
2017-09-12T08:42:58.048Z,94537.52
2017-09-12T08:45:25.606Z,94545.34
2017-09-12T08:47:53.149Z,94559.79
2017-09-12T08:50:20.663Z,94554.47
2017-09-12T08:52:48.286Z,94550.84
2017-09-12T08:55:15.845Z,94551.04
2017-09-12T08:57:43.409Z,94558.80
2017-09-12T09:00:11.054Z,94561.88
2017-09-12T09:02:38.614Z,94555.56
2017-09-12T09:05:06.142Z,94557.10
2017-09-12T09:07:33.694Z,94564.27
2017-09-12T09:10:01.225Z,94576.23
2017-09-12T09:12:28.764Z,94562.17
2017-09-12T09:14:56.333Z,94577.59
2017-09-12T09:17:23.922Z,94580.43
2017-09-12T09:19:51.425Z,94573.27
2017-09-12T09:22:19.203Z,94581.79
2017-09-12T09:24:46.782Z,94579.48
2017-09-12T09:27:14.340Z,94574.08
2017-09-12T09:29:41.901Z,94588.31
2017-09-12T09:32:09.455Z,94579.38
2017-09-12T09:34:36.968Z,94575.91
2017-09-12T09:37:04.533Z,94578.03
2017-09-12T09:39:32.090Z,94589.87
2017-09-12T09:41:59.751Z,94584.30
2017-09-12T09:44:27.285Z,94586.39
2017-09-12T09:46:54.911Z,94591.52
2017-09-12T09:49:22.435Z,94603.12
2017-09-12T09:51:49.942Z,94603.98
2017-09-12T09:54:17.494Z,94594.58
2017-09-12T09:56:45.005Z,94596.80
2017-09-12T09:59:12.537Z,94612.23
2017-09-12T10:01:40.165Z,94608.31
2017-09-12T10:04:07.701Z,94609.36
2017-09-12T10:06:35.380Z,94612.00
2017-09-12T10:09:03.114Z,94620.42
2017-09-12T10:11:30.635Z,94605.11
2017-09-12T10:13:58.162Z,94614.99
2017-09-12T10:16:25.709Z,94613.48
2017-09-12T10:18:53.230Z,94614.34
2017-09-12T10:21:20.741Z,94612.37
2017-09-12T10:23:48.294Z,94611.97
2017-09-12T10:26:16.156Z,94636.27
2017-09-12T10:28:43.702Z,94626.11
2017-09-12T10:31:11.350Z,94629.50
2017-09-12T10:33:38.933Z,94637.67
2017-09-12T10:36:06.460Z,94651.53
2017-09-12T10:38:34.027Z,94635.22
2017-09-12T10:41:01.552Z,94646.09
2017-09-12T10:43:29.098Z,94650.61
2017-09-12T10:45:56.670Z,94642.81
2017-09-12T10:48:24.173Z,94642.81
2017-09-12T10:50:51.710Z,94648.56
2017-09-12T10:53:19.317Z,94646.45
2017-09-12T10:55:46.982Z,94647.09
2017-09-12T10:58:14.508Z,94651.25
2017-09-12T11:00:42.322Z,94665.70
2017-09-12T11:03:09.873Z,94661.68
2017-09-12T11:05:37.378Z,94655.32
2017-09-12T11:08:04.940Z,94657.10
2017-09-12T11:10:32.443Z,94652.95
2017-09-12T11:13:00.020Z,94662.09
2017-09-12T11:15:27.649Z,94661.75
2017-09-12T11:17:55.195Z,94652.36
2017-09-12T11:20:22.909Z,94655.51
2017-09-12T11:22:50.543Z,94652.14
2017-09-12T11:25:18.050Z,94658.23
2017-09-12T11:27:45.565Z,94647.70
2017-09-12T11:30:13.128Z,94650.92
2017-09-12T11:32:40.952Z,94656.73
2017-09-12T11:35:08.512Z,94656.20
2017-09-12T11:37:36.081Z,94654.69
2017-09-12T11:40:03.603Z,94664.19
2017-09-12T11:42:31.643Z,94663.38
2017-09-12T11:44:59.198Z,94673.39
2017-09-12T11:47:27.149Z,94674.81
2017-09-12T11:49:54.746Z,94688.95
2017-09-12T11:52:22.298Z,94689.20
2017-09-12T11:54:50.270Z,94675.55
2017-09-12T11:57:18.129Z,94694.95
2017-09-12T11:59:45.678Z,94694.63
2017-09-12T12:02:13.243Z,94693.77
2017-09-12T12:04:40.806Z,94706.06
2017-09-12T12:07:08.411Z,94709.70
2017-09-12T12:09:35.961Z,94699.97
2017-09-12T12:12:03.513Z,94688.34
2017-09-12T12:14:31.066Z,94704.86
2017-09-12T12:16:58.652Z,94708.73
2017-09-12T12:19:26.209Z,94704.47
2017-09-12T12:21:53.745Z,94700.12
2017-09-12T12:24:21.338Z,94708.58
2017-09-12T12:26:49.091Z,94716.94
2017-09-12T12:29:16.838Z,94713.92
2017-09-12T12:31:44.406Z,94715.31
2017-09-12T12:34:11.960Z,94724.08
2017-09-12T12:36:39.534Z,94723.75
2017-09-12T12:39:07.319Z,94728.32
2017-09-12T12:41:34.838Z,94733.78
2017-09-12T12:44:02.360Z,94730.13
2017-09-12T12:46:29.943Z,94715.95
2017-09-12T12:48:57.570Z,94733.10
2017-09-12T12:51:25.110Z,94724.86
2017-09-12T12:53:52.758Z,94736.75
2017-09-12T12:56:20.411Z,94738.77
2017-09-12T12:58:47.977Z,94725.94
2017-09-12T13:01:15.659Z,94735.09
2017-09-12T13:03:43.242Z,94733.41
2017-09-12T13:06:10.832Z,94736.17
2017-09-12T13:08:38.418Z,94752.62
2017-09-12T13:11:06.990Z,94753.19
2017-09-12T13:13:34.529Z,94761.34
2017-09-12T13:16:02.245Z,94763.12
2017-09-12T13:18:29.922Z,94758.85
2017-09-12T13:20:57.486Z,94761.14
2017-09-12T13:23:25.126Z,94754.36
2017-09-12T13:25:53.061Z,94763.71
2017-09-12T13:28:20.749Z,94760.05
2017-09-12T13:30:48.442Z,94758.59
2017-09-12T13:33:15.986Z,94760.55
2017-09-12T13:35:43.606Z,94771.53
2017-09-12T13:38:11.221Z,94774.89
2017-09-12T13:40:38.859Z,94773.09
2017-09-12T13:43:06.485Z,94777.61
2017-09-12T13:45:34.093Z,94781.32
2017-09-12T13:48:02.270Z,94787.19
2017-09-12T13:50:29.884Z,94790.91
2017-09-12T13:52:57.542Z,94796.03
2017-09-12T13:55:25.154Z,94800.66
2017-09-12T13:57:52.748Z,94802.40
2017-09-12T14:00:20.345Z,94796.36
2017-09-12T14:02:47.866Z,94799.36
2017-09-12T14:05:15.432Z,94806.00
2017-09-12T14:07:44.128Z,94810.63
2017-09-12T14:10:11.638Z,94808.16
2017-09-12T14:12:39.381Z,94805.81
2017-09-12T14:15:06.936Z,94825.02
2017-09-12T14:17:34.514Z,94816.47
2017-09-12T14:20:02.157Z,94816.12
2017-09-12T14:22:29.924Z,94818.84
2017-09-12T14:24:57.534Z,94810.37
2017-09-12T14:27:25.162Z,94811.37
2017-09-12T14:29:52.934Z,94816.83
2017-09-12T14:32:20.674Z,94814.84
2017-09-12T14:34:48.431Z,94810.86
2017-09-12T14:37:15.994Z,94829.19
2017-09-12T14:39:43.570Z,94816.03
2017-09-12T14:42:11.161Z,94823.08
2017-09-12T14:44:38.846Z,94819.23
2017-09-12T14:47:06.521Z,94828.60
2017-09-12T14:49:34.310Z,94832.97
2017-09-12T14:52:02.113Z,94831.70
2017-09-12T14:54:30.227Z,94834.78
2017-09-12T14:56:57.873Z,94839.29
2017-09-12T14:59:25.440Z,94849.19
2017-09-12T15:01:53.058Z,94848.70
2017-09-12T15:04:20.591Z,94850.58
2017-09-12T15:06:48.401Z,94848.69
2017-09-12T15:09:16.008Z,94847.66
2017-09-12T15:11:43.648Z,94848.97
2017-09-12T15:14:11.222Z,94855.70
2017-09-12T15:16:38.790Z,94849.09
2017-09-12T15:19:06.322Z,94851.55
2017-09-12T15:21:33.913Z,94854.00
2017-09-12T15:24:01.499Z,94849.06
2017-09-12T15:26:29.070Z,94854.23
2017-09-12T15:28:56.806Z,94864.53
2017-09-12T15:31:24.403Z,94875.65
2017-09-12T15:33:52.022Z,94878.17
2017-09-12T15:36:19.558Z,94876.33
2017-09-12T15:38:47.137Z,94877.84
2017-09-12T15:41:14.687Z,94878.13
2017-09-12T15:43:42.217Z,94880.55
2017-09-12T15:46:09.826Z,94884.35
2017-09-12T15:48:37.383Z,94882.22
2017-09-12T15:51:04.962Z,94888.15
2017-09-12T15:53:32.566Z,94888.44
2017-09-12T15:56:00.098Z,94885.27
2017-09-12T15:58:28.497Z,94891.51
2017-09-12T16:00:56.150Z,94883.73
2017-09-12T16:03:23.686Z,94887.53
2017-09-12T16:05:51.229Z,94886.08
2017-09-12T16:08:18.819Z,94887.31
2017-09-12T16:10:46.393Z,94886.64
2017-09-12T16:13:14.086Z,94888.98
2017-09-12T16:15:41.720Z,94891.98
2017-09-12T16:18:09.261Z,94897.39
2017-09-12T16:20:36.872Z,94884.19
2017-09-12T16:23:04.855Z,94894.32
2017-09-12T16:25:32.457Z,94892.13
2017-09-12T16:28:00.195Z,94894.80
2017-09-12T16:30:27.929Z,94897.11
2017-09-12T16:32:55.498Z,94892.85
2017-09-12T16:35:23.014Z,94897.17
2017-09-12T16:37:50.610Z,94895.25
2017-09-12T16:40:18.178Z,94890.70
2017-09-12T16:42:45.745Z,94890.98
2017-09-12T16:45:13.314Z,94892.92
2017-09-12T16:47:40.901Z,94897.30
2017-09-12T16:50:08.460Z,94896.19
2017-09-12T16:52:36.033Z,94892.86
2017-09-12T16:55:03.594Z,94891.81
2017-09-12T16:57:31.183Z,94886.23
2017-09-12T16:59:58.781Z,94890.55
2017-09-12T17:02:26.512Z,94894.59
2017-09-12T17:04:54.380Z,94884.14
2017-09-12T17:07:22.279Z,94894.03
2017-09-12T17:09:49.878Z,94903.84
2017-09-12T17:12:17.418Z,94900.51
2017-09-12T17:14:45.813Z,94900.36
2017-09-12T17:17:13.364Z,94912.08
2017-09-12T17:19:41.379Z,94906.48
2017-09-12T17:22:08.978Z,94912.98
2017-09-12T17:24:36.626Z,94918.75
2017-09-12T17:27:04.171Z,94928.73
2017-09-12T17:29:31.703Z,94932.81
2017-09-12T17:31:59.343Z,94940.33
2017-09-12T17:34:26.911Z,94943.42
2017-09-12T17:36:54.551Z,94950.20
2017-09-12T17:39:22.119Z,94959.39
2017-09-12T17:41:49.836Z,94959.77
2017-09-12T17:44:18.438Z,94961.95
2017-09-12T17:46:46.127Z,94970.42
2017-09-12T17:49:13.700Z,94976.89
2017-09-12T17:51:41.308Z,94974.95
2017-09-12T17:54:09.696Z,94975.41
2017-09-12T17:56:37.263Z,94980.48
2017-09-12T17:59:05.720Z,94981.14
2017-09-12T18:01:34.238Z,94981.59
2017-09-12T18:04:01.776Z,94983.84
2017-09-12T18:06:29.474Z,94995.45
2017-09-12T18:08:57.076Z,94998.06
2017-09-12T18:11:24.717Z,95000.88
2017-09-12T18:13:52.289Z,95005.47
2017-09-12T18:16:20.422Z,95007.13
2017-09-12T18:18:48.240Z,95003.56
2017-09-12T18:21:16.723Z,95007.05
2017-09-12T18:23:44.286Z,95005.05
2017-09-12T18:26:11.843Z,95006.16
2017-09-12T18:28:39.436Z,95007.28
2017-09-12T18:31:07.013Z,95005.38
2017-09-12T18:33:34.611Z,95011.55
2017-09-12T18:36:02.165Z,95018.20
2017-09-12T18:38:29.805Z,95015.56
2017-09-12T18:40:58.387Z,95023.48
2017-09-12T18:43:25.960Z,95017.66
2017-09-12T18:45:53.641Z,95010.55
2017-09-12T18:48:21.195Z,95023.08
2017-09-12T18:50:48.745Z,95017.83
2017-09-12T18:53:16.442Z,95023.28
2017-09-12T18:55:43.982Z,95034.13
2017-09-12T18:58:11.519Z,95032.73
2017-09-12T19:00:39.141Z,95034.06
2017-09-12T19:03:06.909Z,95034.66
2017-09-12T19:05:34.739Z,95032.45
2017-09-12T19:08:02.853Z,95027.39
2017-09-12T19:10:30.482Z,95037.17
2017-09-12T19:12:58.272Z,95023.30
2017-09-12T19:15:25.874Z,95029.02
2017-09-12T19:17:53.697Z,95030.52
2017-09-12T19:20:21.273Z,95036.16
2017-09-12T19:22:48.930Z,95035.12
2017-09-12T19:25:16.593Z,95046.41
2017-09-12T19:27:44.253Z,95040.14
2017-09-12T19:30:12.014Z,95047.16
2017-09-12T19:32:39.600Z,95059.02
2017-09-12T19:35:07.687Z,95062.83
2017-09-12T19:37:35.485Z,95064.39
2017-09-12T19:40:03.274Z,95063.22
2017-09-12T19:42:30.872Z,95066.03
2017-09-12T19:44:58.479Z,95067.91
2017-09-12T19:47:26.915Z,95074.41
2017-09-12T19:49:55.279Z,95068.86
2017-09-12T19:52:22.891Z,95076.73
2017-09-12T19:54:50.683Z,95073.92
2017-09-12T19:57:18.498Z,95079.19
2017-09-12T19:59:46.134Z,95083.55
2017-09-12T20:02:13.757Z,95084.44
2017-09-12T20:04:41.323Z,95083.27
2017-09-12T20:07:08.879Z,95086.80
2017-09-12T20:09:37.297Z,95086.02
2017-09-12T20:12:04.923Z,95096.45
2017-09-12T20:14:32.526Z,95093.86
2017-09-12T20:17:00.126Z,95102.95
2017-09-12T20:19:28.043Z,95113.87
2017-09-12T20:21:55.616Z,95110.79
2017-09-12T20:24:23.263Z,95118.56
2017-09-12T20:26:50.849Z,95123.13
2017-09-12T20:29:18.439Z,95125.99
2017-09-12T20:31:46.075Z,95126.11
2017-09-12T20:34:13.617Z,95135.88
2017-09-12T20:36:41.426Z,95127.92
2017-09-12T20:39:09.061Z,95137.84
2017-09-12T20:41:37.333Z,95147.76
2017-09-12T20:44:04.917Z,95151.41
2017-09-12T20:46:36.125Z,95154.61
2017-09-12T20:49:06.489Z,95150.91
2017-09-12T20:54:11.521Z,95152.05
2017-09-12T20:56:39.100Z,95150.72
2017-09-12T20:59:06.687Z,95148.91
2017-09-12T21:01:34.302Z,95154.06
2017-09-12T21:04:01.902Z,95159.69
2017-09-12T21:06:29.699Z,95164.29
2017-09-12T21:08:57.334Z,95171.61
2017-09-12T21:11:24.915Z,95166.69
2017-09-12T21:13:52.538Z,95168.14
2017-09-12T21:16:20.166Z,95168.42
2017-09-12T21:18:47.725Z,95178.97
2017-09-12T21:21:15.249Z,95175.53
2017-09-12T21:23:42.829Z,95176.48
2017-09-12T21:26:10.367Z,95183.48
2017-09-12T21:28:37.912Z,95181.01
2017-09-12T21:31:05.502Z,95185.62
2017-09-12T21:33:33.096Z,95183.69
2017-09-12T21:36:00.619Z,95177.75
2017-09-12T21:38:28.202Z,95164.72
2017-09-12T21:40:55.794Z,95188.52
2017-09-12T21:43:23.364Z,95188.12
2017-09-12T21:45:51.026Z,95191.91
2017-09-12T21:48:18.598Z,95196.89
2017-09-12T21:50:46.417Z,95197.09
2017-09-12T21:53:14.100Z,95199.43
2017-09-12T21:55:41.671Z,95202.81
2017-09-12T21:58:09.248Z,95207.95
2017-09-12T22:00:37.015Z,95216.41
2017-09-12T22:03:04.780Z,95210.67
2017-09-12T22:05:32.358Z,95206.05
2017-09-12T22:07:59.970Z,95217.66
2017-09-12T22:10:27.551Z,95213.81
2017-09-12T22:12:55.176Z,95219.44
2017-09-12T22:15:22.794Z,95225.05
2017-09-12T22:17:50.451Z,95223.67
2017-09-12T22:20:18.307Z,95230.22
2017-09-12T22:22:45.874Z,95225.88
2017-09-12T22:25:13.418Z,95227.38
2017-09-12T22:27:41.018Z,95236.41
2017-09-12T22:30:08.680Z,95241.59
2017-09-12T22:32:36.198Z,95241.50
2017-09-12T22:35:03.739Z,95234.20
2017-09-12T22:37:32.108Z,95234.81
2017-09-12T22:39:59.644Z,95243.86
2017-09-12T22:42:27.193Z,95245.20
2017-09-12T22:44:54.810Z,95252.59
2017-09-12T22:47:22.415Z,95244.34
2017-09-12T22:49:50.010Z,95258.60
2017-09-12T22:52:17.627Z,95259.84
2017-09-12T22:54:45.196Z,95260.81
2017-09-12T22:57:12.961Z,95264.46
2017-09-12T22:59:40.543Z,95259.08
2017-09-12T23:02:08.177Z,95267.38
2017-09-12T23:04:35.934Z,95264.41
2017-09-12T23:07:03.878Z,95265.65
2017-09-12T23:09:31.459Z,95270.98
2017-09-12T23:11:58.977Z,95266.63
2017-09-12T23:14:26.731Z,95263.69
2017-09-12T23:16:54.332Z,95279.04
2017-09-12T23:19:21.892Z,95277.05
2017-09-12T23:21:50.129Z,95281.56
2017-09-12T23:24:17.734Z,95273.12
2017-09-12T23:26:45.319Z,95280.19
2017-09-12T23:29:12.870Z,95276.20
2017-09-12T23:31:40.489Z,95277.38
2017-09-12T23:34:08.081Z,95281.48
2017-09-12T23:36:35.671Z,95275.95
2017-09-12T23:39:03.226Z,95274.38
2017-09-12T23:41:30.782Z,95282.76
2017-09-12T23:43:58.377Z,95285.02
2017-09-12T23:46:25.977Z,95287.22
2017-09-12T23:48:53.734Z,95293.34
2017-09-12T23:51:21.605Z,95290.79
2017-09-12T23:53:49.203Z,95292.33
2017-09-12T23:56:16.753Z,95290.64
2017-09-12T23:58:44.330Z,95294.94
